sensor_id;sensor_type;location;lat;lon;timestamp;pressure;altitude;pressure_sealevel;temperature;humidity
75617;BME280;64200;55.426;37.758;2023-11-21T00:01:14;98692.44;;;-5.84;60.55
75617;BME280;64200;55.426;37.758;2023-11-21T00:06:15;98691.69;;;-5.81;60.91
75617;BME280;64200;55.426;37.758;2023-11-21T00:11:15;98690.22;;;-5.64;61.09
75617;BME280;64200;55.426;37.758;2023-11-21T00:16:16;98689.47;;;-5.57;60.96
75617;BME280;64200;55.426;37.758;2023-11-21T00:21:16;98680.09;;;-5.71;60.75
75617;BME280;64200;55.426;37.758;2023-11-21T00:26:17;98687.53;;;-5.60;60.96
75617;BME280;64200;55.426;37.758;2023-11-21T00:31:17;98692.19;;;-5.61;60.42
75617;BME280;64200;55.426;37.758;2023-11-21T00:36:18;98683.28;;;-5.58;60.54
75617;BME280;64200;55.426;37.758;2023-11-21T00:41:19;98682.47;;;-5.62;59.91
75617;BME280;64200;55.426;37.758;2023-11-21T00:46:19;98682.56;;;-5.48;60.35
75617;BME280;64200;55.426;37.758;2023-11-21T00:51:20;98689.84;;;-5.59;60.03
75617;BME280;64200;55.426;37.758;2023-11-21T00:56:21;98690.25;;;-5.60;59.85
75617;BME280;64200;55.426;37.758;2023-11-21T01:01:22;98690.59;;;-5.69;60.03
75617;BME280;64200;55.426;37.758;2023-11-21T01:06:23;98696.81;;;-5.61;60.21
75617;BME280;64200;55.426;37.758;2023-11-21T01:11:23;98683.31;;;-5.51;60.01
75617;BME280;64200;55.426;37.758;2023-11-21T01:16:24;98680.22;;;-5.45;59.82
75617;BME280;64200;55.426;37.758;2023-11-21T01:21:25;98687.56;;;-5.53;59.04
75617;BME280;64200;55.426;37.758;2023-11-21T01:26:25;98678.63;;;-5.54;59.83
75617;BME280;64200;55.426;37.758;2023-11-21T01:31:26;98670.03;;;-5.67;59.36
75617;BME280;64200;55.426;37.758;2023-11-21T01:36:30;98678.91;;;-5.73;58.75
75617;BME280;64200;55.426;37.758;2023-11-21T01:41:32;98683.97;;;-5.72;59.29
75617;BME280;64200;55.426;37.758;2023-11-21T01:46:33;98689.44;;;-5.65;59.12
75617;BME280;64200;55.426;37.758;2023-11-21T01:51:33;98690.19;;;-5.68;59.27
75617;BME280;64200;55.426;37.758;2023-11-21T01:56:34;98694.47;;;-5.67;59.43
75617;BME280;64200;55.426;37.758;2023-11-21T02:01:35;98705.69;;;-5.75;59.11
75617;BME280;64200;55.426;37.758;2023-11-21T02:06:36;98703.03;;;-5.65;59.20
75617;BME280;64200;55.426;37.758;2023-11-21T02:11:36;98680.91;;;-5.63;58.65
75617;BME280;64200;55.426;37.758;2023-11-21T02:16:39;98685.09;;;-5.80;58.80
75617;BME280;64200;55.426;37.758;2023-11-21T02:21:41;98680.09;;;-5.71;59.07
75617;BME280;64200;55.426;37.758;2023-11-21T02:26:42;98691.69;;;-5.77;58.78
75617;BME280;64200;55.426;37.758;2023-11-21T02:31:43;98693.34;;;-5.58;59.03
75617;BME280;64200;55.426;37.758;2023-11-21T02:36:50;98697.63;;;-5.57;58.83
75617;BME280;64200;55.426;37.758;2023-11-21T02:41:51;98698.00;;;-5.55;58.75
75617;BME280;64200;55.426;37.758;2023-11-21T02:46:51;98709.22;;;-5.68;58.25
75617;BME280;64200;55.426;37.758;2023-11-21T02:51:52;98733.31;;;-5.62;58.53
75617;BME280;64200;55.426;37.758;2023-11-21T02:56:52;98741.81;;;-5.64;58.81
75617;BME280;64200;55.426;37.758;2023-11-21T03:01:53;98733.34;;;-5.59;58.93
75617;BME280;64200;55.426;37.758;2023-11-21T03:06:53;98741.88;;;-5.60;58.10
75617;BME280;64200;55.426;37.758;2023-11-21T03:11:54;98749.69;;;-5.52;58.67
75617;BME280;64200;55.426;37.758;2023-11-21T03:16:54;98738.88;;;-5.37;58.48
75617;BME280;64200;55.426;37.758;2023-11-21T03:21:55;98734.94;;;-5.51;57.66
75617;BME280;64200;55.426;37.758;2023-11-21T03:26:55;98751.59;;;-5.56;57.96
75617;BME280;64200;55.426;37.758;2023-11-21T03:31:57;98745.75;;;-5.58;58.13
75617;BME280;64200;55.426;37.758;2023-11-21T03:36:57;98753.13;;;-5.58;57.67
75617;BME280;64200;55.426;37.758;2023-11-21T03:41:58;98746.16;;;-5.52;57.78
75617;BME280;64200;55.426;37.758;2023-11-21T03:46:59;98754.72;;;-5.50;58.00
75617;BME280;64200;55.426;37.758;2023-11-21T03:52:00;98750.50;;;-5.44;58.00
75617;BME280;64200;55.426;37.758;2023-11-21T03:57:00;98748.63;;;-5.33;57.35
75617;BME280;64200;55.426;37.758;2023-11-21T04:02:01;98731.44;;;-5.51;57.51
75617;BME280;64200;55.426;37.758;2023-11-21T04:07:01;98751.22;;;-5.54;57.47
75617;BME280;64200;55.426;37.758;2023-11-21T04:12:02;98746.56;;;-5.50;57.22
75617;BME280;64200;55.426;37.758;2023-11-21T04:17:03;98744.25;;;-5.52;56.98
75617;BME280;64200;55.426;37.758;2023-11-21T04:22:04;98748.88;;;-5.56;56.37
75617;BME280;64200;55.426;37.758;2023-11-21T04:27:04;98750.72;;;-5.67;56.20
75617;BME280;64200;55.426;37.758;2023-11-21T04:32:05;98768.28;;;-5.54;57.12
75617;BME280;64200;55.426;37.758;2023-11-21T04:37:06;98763.31;;;-5.44;56.30
75617;BME280;64200;55.426;37.758;2023-11-21T04:42:06;98762.53;;;-5.41;56.16
75617;BME280;64200;55.426;37.758;2023-11-21T04:47:07;98768.28;;;-5.57;56.12
75617;BME280;64200;55.426;37.758;2023-11-21T04:52:07;98768.28;;;-5.57;56.38
75617;BME280;64200;55.426;37.758;2023-11-21T04:57:09;98765.22;;;-5.49;56.87
75617;BME280;64200;55.426;37.758;2023-11-21T05:02:10;98775.16;;;-5.71;55.95
75617;BME280;64200;55.426;37.758;2023-11-21T05:07:10;98779.91;;;-5.60;56.98
75617;BME280;64200;55.426;37.758;2023-11-21T05:12:11;98772.56;;;-5.56;56.38
75617;BME280;64200;55.426;37.758;2023-11-21T05:17:11;98784.88;;;-5.70;56.59
75617;BME280;64200;55.426;37.758;2023-11-21T05:22:12;98775.56;;;-5.69;56.61
75617;BME280;64200;55.426;37.758;2023-11-21T05:27:12;98791.47;;;-5.71;56.33
75617;BME280;64200;55.426;37.758;2023-11-21T05:32:13;98780.13;;;-5.84;56.75
75617;BME280;64200;55.426;37.758;2023-11-21T05:37:13;98793.38;;;-5.75;56.99
75617;BME280;64200;55.426;37.758;2023-11-21T05:42:14;98785.66;;;-5.69;57.38
75617;BME280;64200;55.426;37.758;2023-11-21T05:47:15;98792.59;;;-5.75;57.36
75617;BME280;64200;55.426;37.758;2023-11-21T05:52:15;98805.94;;;-5.56;57.55
75617;BME280;64200;55.426;37.758;2023-11-21T05:57:16;98812.13;;;-5.55;57.66
75617;BME280;64200;55.426;37.758;2023-11-21T06:02:16;98825.00;;;-5.45;57.44
75617;BME280;64200;55.426;37.758;2023-11-21T06:07:16;98825.88;;;-5.30;57.73
75617;BME280;64200;55.426;37.758;2023-11-21T06:12:17;98831.41;;;-5.19;57.39
75617;BME280;64200;55.426;37.758;2023-11-21T06:17:18;98811.47;;;-5.38;57.06
75617;BME280;64200;55.426;37.758;2023-11-21T06:22:18;98829.75;;;-5.35;57.60
75617;BME280;64200;55.426;37.758;2023-11-21T06:27:19;98828.63;;;-5.26;57.33
75617;BME280;64200;55.426;37.758;2023-11-21T06:32:19;98841.41;;;-5.31;57.85
75617;BME280;64200;55.426;37.758;2023-11-21T06:37:22;98846.28;;;-4.99;57.76
75617;BME280;64200;55.426;37.758;2023-11-21T06:42:24;98834.66;;;-4.85;57.66
75617;BME280;64200;55.426;37.758;2023-11-21T06:47:25;98837.84;;;-4.72;57.33
75617;BME280;64200;55.426;37.758;2023-11-21T06:52:25;98848.28;;;-4.85;56.95
75617;BME280;64200;55.426;37.758;2023-11-21T06:57:26;98835.03;;;-4.94;56.96
75617;BME280;64200;55.426;37.758;2023-11-21T07:02:27;98841.72;;;-4.73;57.28
75617;BME280;64200;55.426;37.758;2023-11-21T07:07:28;98838.63;;;-4.68;57.06
75617;BME280;64200;55.426;37.758;2023-11-21T07:12:30;98844.44;;;-4.73;56.80
75617;BME280;64200;55.426;37.758;2023-11-21T07:17:31;98837.06;;;-4.65;57.24
75617;BME280;64200;55.426;37.758;2023-11-21T07:22:31;98844.88;;;-4.56;57.10
75617;BME280;64200;55.426;37.758;2023-11-21T07:27:32;98846.09;;;-4.43;57.27
75617;BME280;64200;55.426;37.758;2023-11-21T07:32:35;98857.81;;;-4.25;56.34
75617;BME280;64200;55.426;37.758;2023-11-21T07:37:36;98852.00;;;-4.19;55.76
75617;BME280;64200;55.426;37.758;2023-11-21T07:42:37;98849.59;;;-4.50;55.40
75617;BME280;64200;55.426;37.758;2023-11-21T07:47:37;98849.91;;;-4.66;54.54
75617;BME280;64200;55.426;37.758;2023-11-21T07:52:39;98849.31;;;-3.69;54.69
75617;BME280;64200;55.426;37.758;2023-11-21T07:57:40;98842.81;;;-1.84;53.28
75617;BME280;64200;55.426;37.758;2023-11-21T08:02:41;98843.72;;;-0.73;49.21
75617;BME280;64200;55.426;37.758;2023-11-21T08:07:42;98836.34;;;-2.08;49.44
75617;BME280;64200;55.426;37.758;2023-11-21T08:12:42;98836.34;;;-2.86;49.30
75617;BME280;64200;55.426;37.758;2023-11-21T08:17:43;98841.09;;;-3.26;51.02
75617;BME280;64200;55.426;37.758;2023-11-21T08:22:44;98842.47;;;-2.60;51.44
75617;BME280;64200;55.426;37.758;2023-11-21T08:27:46;98852.34;;;-2.84;49.71
75617;BME280;64200;55.426;37.758;2023-11-21T08:32:46;98853.97;;;-3.23;50.34
75617;BME280;64200;55.426;37.758;2023-11-21T08:37:47;98841.09;;;-3.08;50.43
75617;BME280;64200;55.426;37.758;2023-11-21T08:42:48;98852.34;;;-2.91;50.02
75617;BME280;64200;55.426;37.758;2023-11-21T08:47:48;98856.28;;;-3.10;49.19
75617;BME280;64200;55.426;37.758;2023-11-21T08:52:49;98854.34;;;-3.13;50.26
75617;BME280;64200;55.426;37.758;2023-11-21T08:57:50;98852.41;;;-3.09;50.04
75617;BME280;64200;55.426;37.758;2023-11-21T09:02:51;98844.19;;;-3.13;50.10
75617;BME280;64200;55.426;37.758;2023-11-21T09:07:52;98852.06;;;-3.55;49.47
75617;BME280;64200;55.426;37.758;2023-11-21T09:12:52;98872.69;;;-3.54;50.07
75617;BME280;64200;55.426;37.758;2023-11-21T09:17:53;98869.19;;;-3.47;49.64
75617;BME280;64200;55.426;37.758;2023-11-21T09:22:53;98870.34;;;-3.66;49.75
75617;BME280;64200;55.426;37.758;2023-11-21T09:27:55;98871.91;;;-3.58;50.42
75617;BME280;64200;55.426;37.758;2023-11-21T09:32:57;98884.75;;;-3.55;50.60
75617;BME280;64200;55.426;37.758;2023-11-21T09:37:58;98876.59;;;-3.62;50.48
75617;BME280;64200;55.426;37.758;2023-11-21T09:43:07;98876.19;;;-3.60;50.23
75617;BME280;64200;55.426;37.758;2023-11-21T09:48:08;98886.72;;;-3.80;49.99
75617;BME280;64200;55.426;37.758;2023-11-21T09:53:18;98880.88;;;-3.50;50.61
75617;BME280;64200;55.426;37.758;2023-11-21T09:58:21;98887.09;;;-3.49;49.83
75617;BME280;64200;55.426;37.758;2023-11-21T10:03:23;98881.66;;;-3.57;49.41
75617;BME280;64200;55.426;37.758;2023-11-21T10:08:25;98889.44;;;-3.44;49.47
75617;BME280;64200;55.426;37.758;2023-11-21T10:13:29;98885.16;;;-3.42;48.43
75617;BME280;64200;55.426;37.758;2023-11-21T10:18:32;98876.59;;;-3.47;49.33
75617;BME280;64200;55.426;37.758;2023-11-21T10:23:34;98885.53;;;-3.58;49.54
75617;BME280;64200;55.426;37.758;2023-11-21T10:28:35;98871.13;;;-3.69;49.44
75617;BME280;64200;55.426;37.758;2023-11-21T10:33:37;98884.38;;;-3.64;49.62
75617;BME280;64200;55.426;37.758;2023-11-21T10:38:42;98870.34;;;-3.51;50.07
75617;BME280;64200;55.426;37.758;2023-11-21T10:43:43;98878.13;;;-3.36;50.18
75617;BME280;64200;55.426;37.758;2023-11-21T10:48:44;98879.31;;;-3.44;49.91
75617;BME280;64200;55.426;37.758;2023-11-21T10:53:44;98875.03;;;-3.74;50.74
75617;BME280;64200;55.426;37.758;2023-11-21T10:58:46;98895.59;;;-4.12;50.64
75617;BME280;64200;55.426;37.758;2023-11-21T11:03:50;98896.81;;;-3.92;50.71
75617;BME280;64200;55.426;37.758;2023-11-21T11:08:54;98894.06;;;-3.92;50.85
75617;BME280;64200;55.426;37.758;2023-11-21T11:13:56;98903.00;;;-3.91;51.10
75617;BME280;64200;55.426;37.758;2023-11-21T11:19:00;98906.50;;;-3.94;51.12
75617;BME280;64200;55.426;37.758;2023-11-21T11:29:46;98909.97;;;-4.15;51.82
75617;BME280;64200;55.426;37.758;2023-11-21T11:35:01;98899.13;;;-4.01;51.71
75617;BME280;64200;55.426;37.758;2023-11-21T11:40:06;98909.25;;;-3.98;52.57
75617;BME280;64200;55.426;37.758;2023-11-21T11:45:32;98909.59;;;-4.07;52.63
75617;BME280;64200;55.426;37.758;2023-11-21T11:50:33;98918.16;;;-4.15;53.18
75617;BME280;64200;55.426;37.758;2023-11-21T11:55:34;98923.63;;;-3.97;53.01
75617;BME280;64200;55.426;37.758;2023-11-21T12:00:35;98912.34;;;-4.03;53.60
75617;BME280;64200;55.426;37.758;2023-11-21T12:05:40;98917.00;;;-4.11;53.22
75617;BME280;64200;55.426;37.758;2023-11-21T12:10:43;98921.22;;;-4.20;53.27
75617;BME280;64200;55.426;37.758;2023-11-21T12:15:44;98930.50;;;-4.36;53.35
75617;BME280;64200;55.426;37.758;2023-11-21T12:20:46;98924.59;;;-4.56;54.11
75617;BME280;64200;55.426;37.758;2023-11-21T12:25:48;98933.94;;;-4.53;54.15
75617;BME280;64200;55.426;37.758;2023-11-21T12:30:49;98937.47;;;-4.46;54.47
75617;BME280;64200;55.426;37.758;2023-11-21T12:35:49;98938.22;;;-4.52;54.71
75617;BME280;64200;55.426;37.758;2023-11-21T12:40:51;98929.66;;;-4.54;55.14
75617;BME280;64200;55.426;37.758;2023-11-21T12:45:51;98940.94;;;-4.52;55.06
75617;BME280;64200;55.426;37.758;2023-11-21T12:51:05;98928.69;;;-4.91;55.20
75617;BME280;64200;55.426;37.758;2023-11-21T12:56:13;98938.09;;;-4.78;55.41
75617;BME280;64200;55.426;37.758;2023-11-21T13:01:13;98929.97;;;-4.70;55.37
75617;BME280;64200;55.426;37.758;2023-11-21T13:06:20;98925.53;;;-4.93;55.15
75617;BME280;64200;55.426;37.758;2023-11-21T13:11:25;98951.97;;;-4.97;55.84
75617;BME280;64200;55.426;37.758;2023-11-21T13:16:27;98953.09;;;-5.02;55.94
75617;BME280;64200;55.426;37.758;2023-11-21T13:21:28;98972.53;;;-4.96;56.25
75617;BME280;64200;55.426;37.758;2023-11-21T13:26:29;98979.47;;;-5.06;56.49
75617;BME280;64200;55.426;37.758;2023-11-21T13:31:29;98986.56;;;-4.94;56.44
75617;BME280;64200;55.426;37.758;2023-11-21T13:36:31;98984.94;;;-5.02;56.26
75617;BME280;64200;55.426;37.758;2023-11-21T13:41:35;98991.00;;;-5.23;56.51
75617;BME280;64200;55.426;37.758;2023-11-21T13:46:38;98994.47;;;-5.23;56.85
75617;BME280;64200;55.426;37.758;2023-11-21T13:51:38;98997.69;;;-5.10;56.42
75617;BME280;64200;55.426;37.758;2023-11-21T13:56:46;99002.38;;;-5.07;56.65
75617;BME280;64200;55.426;37.758;2023-11-21T14:01:47;99003.50;;;-5.12;56.52
75617;BME280;64200;55.426;37.758;2023-11-21T14:06:53;99022.50;;;-5.15;56.51
75617;BME280;64200;55.426;37.758;2023-11-21T14:11:55;99020.44;;;-5.29;56.75
75617;BME280;64200;55.426;37.758;2023-11-21T14:17:00;99031.69;;;-5.34;56.35
75617;BME280;64200;55.426;37.758;2023-11-21T14:22:02;99028.22;;;-5.31;56.79
75617;BME280;64200;55.426;37.758;2023-11-21T14:27:03;99038.72;;;-5.26;56.89
75617;BME280;64200;55.426;37.758;2023-11-21T14:32:04;99027.00;;;-5.34;56.87
75617;BME280;64200;55.426;37.758;2023-11-21T14:37:08;99026.88;;;-5.48;56.94
75617;BME280;64200;55.426;37.758;2023-11-21T14:42:09;99042.41;;;-5.45;57.62
75617;BME280;64200;55.426;37.758;2023-11-21T14:47:09;99023.41;;;-5.45;57.95
75617;BME280;64200;55.426;37.758;2023-11-21T14:52:27;99031.69;;;-5.34;57.89
75617;BME280;64200;55.426;37.758;2023-11-21T14:57:34;99041.72;;;-5.38;58.32
75617;BME280;64200;55.426;37.758;2023-11-21T15:02:36;99039.31;;;-5.43;58.53
75617;BME280;64200;55.426;37.758;2023-11-21T15:07:51;99036.63;;;-5.43;58.59
75617;BME280;64200;55.426;37.758;2023-11-21T15:12:56;99050.28;;;-5.36;58.20
75617;BME280;64200;55.426;37.758;2023-11-21T15:17:58;99059.28;;;-5.29;58.64
75617;BME280;64200;55.426;37.758;2023-11-21T15:22:58;99057.00;;;-5.23;58.44
75617;BME280;64200;55.426;37.758;2023-11-21T15:27:58;99046.06;;;-5.30;58.76
75617;BME280;64200;55.426;37.758;2023-11-21T15:33:00;99064.84;;;-5.18;58.06
75617;BME280;64200;55.426;37.758;2023-11-21T15:38:01;99032.75;;;-5.42;58.14
75617;BME280;64200;55.426;37.758;2023-11-21T15:43:01;99066.72;;;-5.22;57.74
75617;BME280;64200;55.426;37.758;2023-11-21T15:48:03;99051.38;;;-5.44;57.88
75617;BME280;64200;55.426;37.758;2023-11-21T15:53:05;99069.72;;;-5.34;58.79
75617;BME280;64200;55.426;37.758;2023-11-21T15:58:06;99046.41;;;-5.35;57.86
75617;BME280;64200;55.426;37.758;2023-11-21T16:03:07;99063.16;;;-5.30;57.40
75617;BME280;64200;55.426;37.758;2023-11-21T16:08:09;99058.72;;;-5.45;57.79
75617;BME280;64200;55.426;37.758;2023-11-21T16:13:10;99064.47;;;-5.54;57.49
75617;BME280;64200;55.426;37.758;2023-11-21T16:18:10;99074.94;;;-5.56;57.18
75617;BME280;64200;55.426;37.758;2023-11-21T16:23:11;99063.84;;;-5.74;57.64
75617;BME280;64200;55.426;37.758;2023-11-21T16:28:12;99065.94;;;-5.60;57.65
75617;BME280;64200;55.426;37.758;2023-11-21T16:33:13;99059.81;;;-5.53;57.60
75617;BME280;64200;55.426;37.758;2023-11-21T16:38:14;99066.75;;;-5.59;57.18
75617;BME280;64200;55.426;37.758;2023-11-21T16:43:15;99074.47;;;-5.61;57.75
75617;BME280;64200;55.426;37.758;2023-11-21T16:48:15;99077.44;;;-5.74;57.46
75617;BME280;64200;55.426;37.758;2023-11-21T16:53:16;99077.00;;;-5.76;57.88
75617;BME280;64200;55.426;37.758;2023-11-21T16:58:16;99077.34;;;-5.81;57.70
75617;BME280;64200;55.426;37.758;2023-11-21T17:03:17;99094.25;;;-5.95;58.16
75617;BME280;64200;55.426;37.758;2023-11-21T17:08:20;99075.09;;;-6.09;58.32
75617;BME280;64200;55.426;37.758;2023-11-21T17:13:20;99080.00;;;-6.19;58.25
75617;BME280;64200;55.426;37.758;2023-11-21T17:18:21;99087.41;;;-6.15;58.09
75617;BME280;64200;55.426;37.758;2023-11-21T17:23:23;99090.81;;;-6.22;58.35
75617;BME280;64200;55.426;37.758;2023-11-21T17:28:24;99087.63;;;-6.28;57.81
75617;BME280;64200;55.426;37.758;2023-11-21T17:33:25;99080.28;;;-6.27;57.86
75617;BME280;64200;55.426;37.758;2023-11-21T17:38:25;99089.03;;;-6.11;58.13
75617;BME280;64200;55.426;37.758;2023-11-21T17:43:26;99073.75;;;-6.23;57.72
75617;BME280;64200;55.426;37.758;2023-11-21T17:48:26;99058.47;;;-6.34;57.50
75617;BME280;64200;55.426;37.758;2023-11-21T17:53:30;99073.69;;;-6.26;57.56
75617;BME280;64200;55.426;37.758;2023-11-21T17:58:30;99085.59;;;-6.34;57.97
75617;BME280;64200;55.426;37.758;2023-11-21T18:03:31;99087.88;;;-6.37;57.83
75617;BME280;64200;55.426;37.758;2023-11-21T18:08:31;99092.91;;;-6.39;58.13
75617;BME280;64200;55.426;37.758;2023-11-21T18:13:32;99092.88;;;-6.42;58.21
75617;BME280;64200;55.426;37.758;2023-11-21T18:18:32;99103.97;;;-6.51;58.13
75617;BME280;64200;55.426;37.758;2023-11-21T18:23:33;99099.31;;;-6.50;58.03
75617;BME280;64200;55.426;37.758;2023-11-21T18:28:36;99109.22;;;-6.62;58.45
75617;BME280;64200;55.426;37.758;2023-11-21T18:33:39;99106.78;;;-6.71;58.52
75617;BME280;64200;55.426;37.758;2023-11-21T18:38:40;99110.97;;;-6.73;58.93
75617;BME280;64200;55.426;37.758;2023-11-21T18:43:41;99115.81;;;-6.63;58.93
75617;BME280;64200;55.426;37.758;2023-11-21T18:48:41;99102.66;;;-6.61;58.66
75617;BME280;64200;55.426;37.758;2023-11-21T18:53:42;99111.41;;;-6.44;58.86
75617;BME280;64200;55.426;37.758;2023-11-21T18:58:42;99096.34;;;-6.68;59.09
75617;BME280;64200;55.426;37.758;2023-11-21T19:03:43;99104.47;;;-6.68;58.39
75617;BME280;64200;55.426;37.758;2023-11-21T19:08:43;99098.50;;;-6.78;58.14
75617;BME280;64200;55.426;37.758;2023-11-21T19:13:44;99090.78;;;-6.76;58.33
75617;BME280;64200;55.426;37.758;2023-11-21T19:18:44;99105.59;;;-6.69;58.84
75617;BME280;64200;55.426;37.758;2023-11-21T19:23:46;99106.03;;;-6.67;58.50
75617;BME280;64200;55.426;37.758;2023-11-21T19:28:46;99117.53;;;-6.74;58.28
75617;BME280;64200;55.426;37.758;2023-11-21T19:33:47;99124.91;;;-6.75;58.35
75617;BME280;64200;55.426;37.758;2023-11-21T19:38:49;99126.53;;;-6.93;58.42
75617;BME280;64200;55.426;37.758;2023-11-21T19:43:51;99117.00;;;-6.83;58.80
75617;BME280;64200;55.426;37.758;2023-11-21T19:48:51;99122.72;;;-6.89;58.98
75617;BME280;64200;55.426;37.758;2023-11-21T19:53:53;99122.44;;;-6.83;58.36
75617;BME280;64200;55.426;37.758;2023-11-21T19:58:54;99117.13;;;-6.99;58.29
75617;BME280;64200;55.426;37.758;2023-11-21T20:03:55;99126.66;;;-6.86;58.54
75617;BME280;64200;55.426;37.758;2023-11-21T20:08:55;99133.78;;;-6.78;58.56
75617;BME280;64200;55.426;37.758;2023-11-21T20:13:58;99134.13;;;-6.79;58.85
75617;BME280;64200;55.426;37.758;2023-11-21T20:18:59;99136.91;;;-6.76;58.69
75617;BME280;64200;55.426;37.758;2023-11-21T20:24:00;99138.63;;;-6.64;59.08
75617;BME280;64200;55.426;37.758;2023-11-21T20:29:01;99136.03;;;-6.57;58.37
75617;BME280;64200;55.426;37.758;2023-11-21T20:34:02;99141.59;;;-6.49;58.65
75617;BME280;64200;55.426;37.758;2023-11-21T20:39:02;99128.75;;;-6.53;58.25
75617;BME280;64200;55.426;37.758;2023-11-21T20:44:03;99141.28;;;-6.44;58.64
75617;BME280;64200;55.426;37.758;2023-11-21T20:49:05;99148.50;;;-6.52;58.63
75617;BME280;64200;55.426;37.758;2023-11-21T20:54:06;99149.72;;;-6.49;58.71
75617;BME280;64200;55.426;37.758;2023-11-21T20:59:07;99147.22;;;-6.35;58.28
75617;BME280;64200;55.426;37.758;2023-11-21T21:04:08;99148.06;;;-6.31;58.29
75617;BME280;64200;55.426;37.758;2023-11-21T21:09:08;99148.13;;;-6.27;58.11
75617;BME280;64200;55.426;37.758;2023-11-21T21:14:09;99157.94;;;-6.19;58.12
75617;BME280;64200;55.426;37.758;2023-11-21T21:19:10;99159.63;;;-6.11;58.09
75617;BME280;64200;55.426;37.758;2023-11-21T21:24:12;99160.53;;;-6.26;57.96
75617;BME280;64200;55.426;37.758;2023-11-21T21:29:13;99155.56;;;-6.47;58.05
75617;BME280;64200;55.426;37.758;2023-11-21T21:34:13;99162.88;;;-6.25;58.00
75617;BME280;64200;55.426;37.758;2023-11-21T21:39:14;99167.91;;;-6.27;57.79
75617;BME280;64200;55.426;37.758;2023-11-21T21:44:17;99156.94;;;-6.34;57.94
75617;BME280;64200;55.426;37.758;2023-11-21T21:49:17;99160.53;;;-6.26;57.93
75617;BME280;64200;55.426;37.758;2023-11-21T21:54:18;99162.53;;;-6.23;57.72
75617;BME280;64200;55.426;37.758;2023-11-21T21:59:18;99146.66;;;-6.21;57.82
75617;BME280;64200;55.426;37.758;2023-11-21T22:04:19;99145.09;;;-6.22;57.73
75617;BME280;64200;55.426;37.758;2023-11-21T22:09:19;99143.19;;;-6.22;57.77
75617;BME280;64200;55.426;37.758;2023-11-21T22:14:20;99152.66;;;-6.35;57.45
75617;BME280;64200;55.426;37.758;2023-11-21T22:19:20;99158.88;;;-6.34;57.56
75617;BME280;64200;55.426;37.758;2023-11-21T22:24:21;99158.88;;;-6.34;57.71
75617;BME280;64200;55.426;37.758;2023-11-21T22:29:22;99159.41;;;-6.48;57.39
75617;BME280;64200;55.426;37.758;2023-11-21T22:34:22;99157.75;;;-6.57;57.57
75617;BME280;64200;55.426;37.758;2023-11-21T22:39:25;99166.97;;;-6.61;58.20
75617;BME280;64200;55.426;37.758;2023-11-21T22:44:25;99173.84;;;-6.67;57.79
75617;BME280;64200;55.426;37.758;2023-11-21T22:49:26;99166.31;;;-6.78;58.33
75617;BME280;64200;55.426;37.758;2023-11-21T22:54:28;99174.31;;;-6.85;58.35
75617;BME280;64200;55.426;37.758;2023-11-21T22:59:29;99177.38;;;-6.86;58.28
75617;BME280;64200;55.426;37.758;2023-11-21T23:04:30;99187.44;;;-6.87;58.32
75617;BME280;64200;55.426;37.758;2023-11-21T23:09:32;99197.88;;;-6.89;59.04
75617;BME280;64200;55.426;37.758;2023-11-21T23:14:32;99190.88;;;-6.90;58.90
75617;BME280;64200;55.426;37.758;2023-11-21T23:19:33;99193.03;;;-6.99;59.26
75617;BME280;64200;55.426;37.758;2023-11-21T23:24:33;99202.38;;;-6.97;59.32
75617;BME280;64200;55.426;37.758;2023-11-21T23:29:34;99198.81;;;-7.01;59.38
75617;BME280;64200;55.426;37.758;2023-11-21T23:34:37;99196.47;;;-7.02;59.59
75617;BME280;64200;55.426;37.758;2023-11-21T23:39:38;99208.94;;;-6.98;59.00
75617;BME280;64200;55.426;37.758;2023-11-21T23:44:39;99194.47;;;-7.06;59.20
75617;BME280;64200;55.426;37.758;2023-11-21T23:49:40;99198.97;;;-7.13;59.28
75617;BME280;64200;55.426;37.758;2023-11-21T23:54:41;99192.56;;;-7.25;59.54
75617;BME280;64200;55.426;37.758;2023-11-21T23:59:42;99189.91;;;-7.21;59.92
